sensor_id;sensor_type;location;lat;lon;timestamp;pressure;altitude;pressure_sealevel;temperature;humidity
6224;BME280;3145;42.726;23.342;2023-03-01T00:00:49;95822.91;;;5.76;nan
6224;BME280;3145;42.726;23.342;2023-03-01T00:03:16;95847.78;;;6.00;nan
6224;BME280;3145;42.726;23.342;2023-03-01T00:05:46;95853.19;;;5.99;nan
6224;BME280;3145;42.726;23.342;2023-03-01T00:08:14;95852.38;;;5.98;nan
6224;BME280;3145;42.726;23.342;2023-03-01T00:10:41;95829.72;;;5.88;nan
6224;BME280;3145;42.726;23.342;2023-03-01T00:13:08;95847.94;;;5.99;nan
6224;BME280;3145;42.726;23.342;2023-03-01T00:15:38;95816.44;;;5.80;nan
6224;BME280;3145;42.726;23.342;2023-03-01T00:18:05;95826.69;;;5.83;nan
6224;BME280;3145;42.726;23.342;2023-03-01T00:20:31;95842.94;;;5.96;nan
6224;BME280;3145;42.726;23.342;2023-03-01T00:22:58;95767.91;;;5.38;nan
6224;BME280;3145;42.726;23.342;2023-03-01T00:25:26;95813.97;;;5.78;nan
6224;BME280;3145;42.726;23.342;2023-03-01T00:27:53;95837.75;;;5.86;nan
6224;BME280;3145;42.726;23.342;2023-03-01T00:30:19;95834.16;;;5.87;nan
6224;BME280;3145;42.726;23.342;2023-03-01T00:32:46;95834.97;;;5.88;nan
6224;BME280;3145;42.726;23.342;2023-03-01T00:35:13;95824.47;;;5.88;nan
6224;BME280;3145;42.726;23.342;2023-03-01T00:37:39;95816.06;;;5.84;nan
6224;BME280;3145;42.726;23.342;2023-03-01T00:40:08;95764.56;;;5.45;nan
6224;BME280;3145;42.726;23.342;2023-03-01T00:42:37;95811.94;;;5.82;nan
6224;BME280;3145;42.726;23.342;2023-03-01T00:45:04;95809.03;;;5.85;nan
6224;BME280;3145;42.726;23.342;2023-03-01T00:47:33;95801.31;;;5.83;nan
6224;BME280;3145;42.726;23.342;2023-03-01T00:49:59;95810.97;;;5.83;nan
6224;BME280;3145;42.726;23.342;2023-03-01T00:52:26;95809.97;;;5.84;nan
6224;BME280;3145;42.726;23.342;2023-03-01T00:54:53;95766.22;;;5.56;nan
6224;BME280;3145;42.726;23.342;2023-03-01T00:57:20;95762.94;;;5.54;nan
6224;BME280;3145;42.726;23.342;2023-03-01T00:59:48;95800.16;;;5.67;nan
6224;BME280;3145;42.726;23.342;2023-03-01T01:02:15;95804.88;;;5.73;nan
6224;BME280;3145;42.726;23.342;2023-03-01T01:04:41;95802.09;;;5.74;nan
6224;BME280;3145;42.726;23.342;2023-03-01T01:07:08;95811.19;;;5.70;nan
6224;BME280;3145;42.726;23.342;2023-03-01T01:09:35;95809.00;;;5.66;nan
6224;BME280;3145;42.726;23.342;2023-03-01T01:12:02;95816.03;;;5.65;nan
6224;BME280;3145;42.726;23.342;2023-03-01T01:14:29;95810.09;;;5.63;nan
6224;BME280;3145;42.726;23.342;2023-03-01T01:16:58;95814.50;;;5.63;nan
6224;BME280;3145;42.726;23.342;2023-03-01T01:19:25;95820.31;;;5.57;nan
6224;BME280;3145;42.726;23.342;2023-03-01T01:21:52;95806.38;;;5.56;nan
6224;BME280;3145;42.726;23.342;2023-03-01T01:24:19;95803.88;;;5.55;nan
6224;BME280;3145;42.726;23.342;2023-03-01T01:26:46;95693.41;;;4.92;nan
6224;BME280;3145;42.726;23.342;2023-03-01T01:29:13;95810.25;;;5.62;nan
6224;BME280;3145;42.726;23.342;2023-03-01T01:31:41;95799.34;;;5.47;nan
6224;BME280;3145;42.726;23.342;2023-03-01T01:34:16;95794.78;;;5.59;nan
6224;BME280;3145;42.726;23.342;2023-03-01T01:36:43;95728.72;;;5.07;nan
6224;BME280;3145;42.726;23.342;2023-03-01T01:39:10;95773.13;;;5.38;nan
6224;BME280;3145;42.726;23.342;2023-03-01T01:41:39;95774.63;;;5.31;nan
6224;BME280;3145;42.726;23.342;2023-03-01T01:44:13;95816.72;;;5.58;nan
6224;BME280;3145;42.726;23.342;2023-03-01T01:46:41;95820.84;;;5.60;nan
6224;BME280;3145;42.726;23.342;2023-03-01T01:49:17;95818.91;;;5.62;nan
6224;BME280;3145;42.726;23.342;2023-03-01T01:51:47;95802.91;;;5.56;nan
6224;BME280;3145;42.726;23.342;2023-03-01T01:54:19;95779.19;;;5.38;nan
6224;BME280;3145;42.726;23.342;2023-03-01T01:56:49;95795.47;;;5.51;nan
6224;BME280;3145;42.726;23.342;2023-03-01T01:59:19;95815.88;;;5.67;nan
6224;BME280;3145;42.726;23.342;2023-03-01T02:01:49;95810.91;;;5.64;nan
6224;BME280;3145;42.726;23.342;2023-03-01T02:04:18;95810.91;;;5.64;nan
6224;BME280;3145;42.726;23.342;2023-03-01T02:06:48;95804.88;;;5.63;nan
6224;BME280;3145;42.726;23.342;2023-03-01T02:09:18;95803.19;;;5.62;nan
6224;BME280;3145;42.726;23.342;2023-03-01T02:11:47;95801.28;;;5.55;nan
6224;BME280;3145;42.726;23.342;2023-03-01T02:14:15;95797.81;;;5.54;nan
6224;BME280;3145;42.726;23.342;2023-03-01T02:16:42;95789.97;;;5.45;nan
6224;BME280;3145;42.726;23.342;2023-03-01T02:19:13;95803.63;;;5.58;nan
6224;BME280;3145;42.726;23.342;2023-03-01T02:21:53;95792.03;;;5.51;nan
6224;BME280;3145;42.726;23.342;2023-03-01T02:24:26;95780.88;;;5.39;nan
6224;BME280;3145;42.726;23.342;2023-03-01T02:26:57;95797.97;;;5.43;nan
6224;BME280;3145;42.726;23.342;2023-03-01T02:29:26;95804.59;;;5.47;nan
6224;BME280;3145;42.726;23.342;2023-03-01T02:31:56;95791.63;;;5.46;nan
6224;BME280;3145;42.726;23.342;2023-03-01T02:34:25;95788.88;;;5.47;nan
6224;BME280;3145;42.726;23.342;2023-03-01T02:36:55;95796.16;;;5.44;nan
6224;BME280;3145;42.726;23.342;2023-03-01T02:39:26;95806.38;;;5.47;nan
6224;BME280;3145;42.726;23.342;2023-03-01T02:41:56;95740.81;;;5.08;nan
6224;BME280;3145;42.726;23.342;2023-03-01T02:44:23;95807.75;;;5.51;nan
6224;BME280;3145;42.726;23.342;2023-03-01T02:46:53;95794.25;;;5.46;nan
6224;BME280;3145;42.726;23.342;2023-03-01T02:49:24;95776.72;;;5.37;nan
6224;BME280;3145;42.726;23.342;2023-03-01T02:52:04;95796.84;;;5.46;nan
6224;BME280;3145;42.726;23.342;2023-03-01T02:54:38;95672.19;;;4.76;nan
6224;BME280;3145;42.726;23.342;2023-03-01T02:57:05;95788.88;;;5.47;nan
6224;BME280;3145;42.726;23.342;2023-03-01T02:59:35;95796.84;;;5.46;nan
6224;BME280;3145;42.726;23.342;2023-03-01T03:02:06;95795.75;;;5.58;nan
6224;BME280;3145;42.726;23.342;2023-03-01T03:04:33;95755.19;;;5.24;nan
6224;BME280;3145;42.726;23.342;2023-03-01T03:07:00;95789.13;;;5.54;nan
6224;BME280;3145;42.726;23.342;2023-03-01T03:09:26;95797.97;;;5.53;nan
6224;BME280;3145;42.726;23.342;2023-03-01T03:11:53;95791.31;;;5.58;nan
6224;BME280;3145;42.726;23.342;2023-03-01T03:14:20;95787.63;;;5.51;nan
6224;BME280;3145;42.726;23.342;2023-03-01T03:16:48;95798.91;;;5.52;nan
6224;BME280;3145;42.726;23.342;2023-03-01T03:19:17;95806.78;;;5.52;nan
6224;BME280;3145;42.726;23.342;2023-03-01T03:21:44;95801.53;;;5.52;nan
6224;BME280;3145;42.726;23.342;2023-03-01T03:24:11;95805.53;;;5.46;nan
6224;BME280;3145;42.726;23.342;2023-03-01T03:26:38;95809.25;;;5.44;nan
6224;BME280;3145;42.726;23.342;2023-03-01T03:29:05;95774.78;;;5.29;nan
6224;BME280;3145;42.726;23.342;2023-03-01T03:31:31;95808.56;;;5.42;nan
6224;BME280;3145;42.726;23.342;2023-03-01T03:33:58;95805.69;;;5.35;nan
6224;BME280;3145;42.726;23.342;2023-03-01T03:36:26;95796.56;;;5.30;nan
6224;BME280;3145;42.726;23.342;2023-03-01T03:38:53;95813.81;;;5.42;nan
6224;BME280;3145;42.726;23.342;2023-03-01T03:41:20;95783.59;;;5.19;nan
6224;BME280;3145;42.726;23.342;2023-03-01T03:44:05;95820.28;;;5.38;nan
6224;BME280;3145;42.726;23.342;2023-03-01T03:46:49;95817.53;;;5.39;nan
6224;BME280;3145;42.726;23.342;2023-03-01T03:49:33;95783.84;;;5.16;nan
6224;BME280;3145;42.726;23.342;2023-03-01T03:52:01;95815.06;;;5.38;nan
6224;BME280;3145;42.726;23.342;2023-03-01T03:54:28;95807.44;;;5.25;nan
6224;BME280;3145;42.726;23.342;2023-03-01T03:56:54;95821.78;;;5.31;nan
6224;BME280;3145;42.726;23.342;2023-03-01T03:59:21;95829.50;;;5.32;nan
6224;BME280;3145;42.726;23.342;2023-03-01T04:02:17;95826.34;;;5.29;nan
6224;BME280;3145;42.726;23.342;2023-03-01T04:04:47;95823.28;;;5.24;nan
6224;BME280;3145;42.726;23.342;2023-03-01T04:07:16;95820.66;;;5.24;nan
6224;BME280;3145;42.726;23.342;2023-03-01T04:09:43;95821.38;;;5.26;nan
6224;BME280;3145;42.726;23.342;2023-03-01T04:12:10;95810.75;;;5.18;nan
6224;BME280;3145;42.726;23.342;2023-03-01T04:14:36;95829.91;;;5.28;nan
6224;BME280;3145;42.726;23.342;2023-03-01T04:17:03;95827.16;;;5.29;nan
6224;BME280;3145;42.726;23.342;2023-03-01T04:19:30;95826.34;;;5.29;nan
6224;BME280;3145;42.726;23.342;2023-03-01T04:22:01;95820.28;;;5.28;nan
6224;BME280;3145;42.726;23.342;2023-03-01T04:24:34;95815.28;;;5.16;nan
6224;BME280;3145;42.726;23.342;2023-03-01T04:27:01;95806.75;;;5.14;nan
6224;BME280;3145;42.726;23.342;2023-03-01T04:29:27;95817.50;;;5.20;nan
6224;BME280;3145;42.726;23.342;2023-03-01T04:31:54;95818.59;;;5.18;nan
6224;BME280;3145;42.726;23.342;2023-03-01T04:34:21;95818.88;;;5.15;nan
6224;BME280;3145;42.726;23.342;2023-03-01T04:36:47;95807.00;;;5.11;nan
6224;BME280;3145;42.726;23.342;2023-03-01T04:39:14;95824.09;;;5.15;nan
6224;BME280;3145;42.726;23.342;2023-03-01T04:41:42;95817.75;;;5.17;nan
6224;BME280;3145;42.726;23.342;2023-03-01T04:44:09;95818.19;;;5.13;nan
6224;BME280;3145;42.726;23.342;2023-03-01T04:46:36;95794.44;;;5.04;nan
6224;BME280;3145;42.726;23.342;2023-03-01T04:49:03;95808.09;;;5.08;nan
6224;BME280;3145;42.726;23.342;2023-03-01T04:51:30;95805.63;;;5.07;nan
6224;BME280;3145;42.726;23.342;2023-03-01T04:53:58;95818.81;;;4.95;nan
6224;BME280;3145;42.726;23.342;2023-03-01T04:56:25;95801.25;;;4.77;nan
6224;BME280;3145;42.726;23.342;2023-03-01T04:58:54;95812.97;;;4.82;nan
6224;BME280;3145;42.726;23.342;2023-03-01T05:01:21;95754.13;;;4.28;nan
6224;BME280;3145;42.726;23.342;2023-03-01T05:03:50;95819.63;;;4.56;nan
6224;BME280;3145;42.726;23.342;2023-03-01T05:06:19;95813.44;;;4.57;nan
6224;BME280;3145;42.726;23.342;2023-03-01T05:08:46;95811.47;;;4.50;nan
6224;BME280;3145;42.726;23.342;2023-03-01T05:11:13;95730.75;;;4.06;nan
6224;BME280;3145;42.726;23.342;2023-03-01T05:13:40;95815.09;;;4.58;nan
6224;BME280;3145;42.726;23.342;2023-03-01T05:16:08;95819.34;;;4.59;nan
6224;BME280;3145;42.726;23.342;2023-03-01T05:18:36;95808.72;;;4.51;nan
6224;BME280;3145;42.726;23.342;2023-03-01T05:21:06;95794.31;;;4.36;nan
6224;BME280;3145;42.726;23.342;2023-03-01T05:23:34;95818.09;;;4.54;nan
6224;BME280;3145;42.726;23.342;2023-03-01T05:26:02;95815.66;;;4.62;nan
6224;BME280;3145;42.726;23.342;2023-03-01T05:28:30;95821.47;;;4.65;nan
6224;BME280;3145;42.726;23.342;2023-03-01T05:30:57;95824.22;;;4.64;nan
6224;BME280;3145;42.726;23.342;2023-03-01T05:33:26;95800.19;;;4.49;nan
6224;BME280;3145;42.726;23.342;2023-03-01T05:35:53;95820.50;;;4.66;nan
6224;BME280;3145;42.726;23.342;2023-03-01T05:38:20;95803.56;;;4.70;nan
6224;BME280;3145;42.726;23.342;2023-03-01T05:40:48;95821.50;;;4.84;nan
6224;BME280;3145;42.726;23.342;2023-03-01T05:43:16;95815.75;;;4.90;nan
6224;BME280;3145;42.726;23.342;2023-03-01T05:45:44;95823.50;;;4.92;nan
6224;BME280;3145;42.726;23.342;2023-03-01T05:48:11;95832.47;;;4.99;nan
6224;BME280;3145;42.726;23.342;2023-03-01T05:50:41;95828.19;;;4.98;nan
6224;BME280;3145;42.726;23.342;2023-03-01T05:53:11;95825.69;;;4.96;nan
6224;BME280;3145;42.726;23.342;2023-03-01T05:55:38;95829.53;;;4.92;nan
6224;BME280;3145;42.726;23.342;2023-03-01T05:58:07;95840.16;;;5.00;nan
6224;BME280;3145;42.726;23.342;2023-03-01T06:00:34;95851.34;;;5.03;nan
6224;BME280;3145;42.726;23.342;2023-03-01T06:03:01;95846.38;;;4.99;nan
6224;BME280;3145;42.726;23.342;2023-03-01T06:05:28;95846.13;;;5.03;nan
6224;BME280;3145;42.726;23.342;2023-03-01T06:07:58;95818.47;;;4.79;nan
6224;BME280;3145;42.726;23.342;2023-03-01T06:10:25;95737.09;;;4.33;nan
6224;BME280;3145;42.726;23.342;2023-03-01T06:12:51;95863.09;;;5.08;nan
6224;BME280;3145;42.726;23.342;2023-03-01T06:15:19;95857.47;;;5.13;nan
6224;BME280;3145;42.726;23.342;2023-03-01T06:17:46;95866.66;;;5.07;nan
6224;BME280;3145;42.726;23.342;2023-03-01T06:20:14;95865.84;;;5.07;nan
6224;BME280;3145;42.726;23.342;2023-03-01T06:22:41;95870.22;;;5.06;nan
6224;BME280;3145;42.726;23.342;2023-03-01T06:25:11;95868.44;;;5.07;nan
6224;BME280;3145;42.726;23.342;2023-03-01T06:27:38;95883.06;;;5.09;nan
6224;BME280;3145;42.726;23.342;2023-03-01T06:30:06;95859.63;;;5.07;nan
6224;BME280;3145;42.726;23.342;2023-03-01T06:32:33;95859.38;;;5.11;nan
6224;BME280;3145;42.726;23.342;2023-03-01T06:35:00;95856.50;;;5.14;nan
6224;BME280;3145;42.726;23.342;2023-03-01T06:37:27;95858.41;;;5.12;nan
6224;BME280;3145;42.726;23.342;2023-03-01T06:39:53;95837.53;;;5.00;nan
6224;BME280;3145;42.726;23.342;2023-03-01T06:42:21;95857.16;;;5.16;nan
6224;BME280;3145;42.726;23.342;2023-03-01T06:44:48;95841.69;;;4.93;nan
6224;BME280;3145;42.726;23.342;2023-03-01T06:47:15;95822.13;;;4.97;nan
6224;BME280;3145;42.726;23.342;2023-03-01T06:49:42;95843.91;;;5.07;nan
6224;BME280;3145;42.726;23.342;2023-03-01T06:52:08;95857.47;;;5.22;nan
6224;BME280;3145;42.726;23.342;2023-03-01T06:54:35;95614.59;;;3.89;nan
6224;BME280;3145;42.726;23.342;2023-03-01T06:57:02;95858.06;;;5.35;nan
6224;BME280;3145;42.726;23.342;2023-03-01T06:59:30;95834.59;;;5.24;nan
6224;BME280;3145;42.726;23.342;2023-03-01T07:01:56;95770.28;;;4.82;nan
6224;BME280;3145;42.726;23.342;2023-03-01T07:04:23;95824.34;;;5.12;nan
6224;BME280;3145;42.726;23.342;2023-03-01T07:06:50;95865.22;;;5.33;nan
6224;BME280;3145;42.726;23.342;2023-03-01T07:09:20;95818.88;;;5.15;nan
6224;BME280;3145;42.726;23.342;2023-03-01T07:11:47;95830.16;;;5.06;nan
6224;BME280;3145;42.726;23.342;2023-03-01T07:14:14;95864.41;;;5.33;nan
6224;BME280;3145;42.726;23.342;2023-03-01T07:16:42;95856.84;;;5.39;nan
6224;BME280;3145;42.726;23.342;2023-03-01T07:19:09;95799.66;;;5.04;nan
6224;BME280;3145;42.726;23.342;2023-03-01T07:21:36;95840.97;;;5.41;nan
6224;BME280;3145;42.726;23.342;2023-03-01T07:24:04;95860.31;;;5.59;nan
6224;BME280;3145;42.726;23.342;2023-03-01T07:26:31;95852.03;;;5.54;nan
6224;BME280;3145;42.726;23.342;2023-03-01T07:28:59;95828.03;;;5.49;nan
6224;BME280;3145;42.726;23.342;2023-03-01T07:31:25;95851.06;;;5.55;nan
6224;BME280;3145;42.726;23.342;2023-03-01T07:33:54;95857.00;;;5.57;nan
6224;BME280;3145;42.726;23.342;2023-03-01T07:36:21;95847.59;;;5.54;nan
6224;BME280;3145;42.726;23.342;2023-03-01T07:38:48;95849.13;;;5.66;nan
6224;BME280;3145;42.726;23.342;2023-03-01T07:41:15;95843.34;;;5.63;nan
6224;BME280;3145;42.726;23.342;2023-03-01T07:43:42;95803.75;;;5.47;nan
6224;BME280;3145;42.726;23.342;2023-03-01T07:46:09;95848.47;;;5.74;nan
6224;BME280;3145;42.726;23.342;2023-03-01T07:48:36;95845.44;;;5.88;nan
6224;BME280;3145;42.726;23.342;2023-03-01T07:51:05;95844.63;;;5.87;nan
6224;BME280;3145;42.726;23.342;2023-03-01T07:53:33;95845.31;;;5.99;nan
6224;BME280;3145;42.726;23.342;2023-03-01T07:56:01;95847.94;;;5.99;nan
6224;BME280;3145;42.726;23.342;2023-03-01T07:58:28;95833.31;;;6.06;nan
6224;BME280;3145;42.726;23.342;2023-03-01T08:00:55;95841.03;;;5.98;nan
6224;BME280;3145;42.726;23.342;2023-03-01T08:03:22;95825.56;;;6.04;nan
6224;BME280;3145;42.726;23.342;2023-03-01T08:05:48;95753.38;;;5.72;nan
6224;BME280;3145;42.726;23.342;2023-03-01T08:08:16;95831.34;;;6.27;nan
6224;BME280;3145;42.726;23.342;2023-03-01T08:10:43;95842.81;;;6.26;nan
6224;BME280;3145;42.726;23.342;2023-03-01T08:13:10;95829.69;;;6.26;nan
6224;BME280;3145;42.726;23.342;2023-03-01T08:15:37;95839.31;;;6.35;nan
6224;BME280;3145;42.726;23.342;2023-03-01T08:18:03;95797.44;;;6.06;nan
6224;BME280;3145;42.726;23.342;2023-03-01T08:20:32;95798.34;;;6.24;nan
6224;BME280;3145;42.726;23.342;2023-03-01T08:22:58;95830.22;;;6.29;nan
6224;BME280;3145;42.726;23.342;2023-03-01T08:25:26;95829.22;;;6.40;nan
6224;BME280;3145;42.726;23.342;2023-03-01T08:27:53;95833.81;;;6.38;nan
6224;BME280;3145;42.726;23.342;2023-03-01T08:30:20;95829.50;;;6.46;nan
6224;BME280;3145;42.726;23.342;2023-03-01T08:32:49;95740.53;;;6.07;nan
6224;BME280;3145;42.726;23.342;2023-03-01T08:35:17;95816.91;;;6.50;nan
6224;BME280;3145;42.726;23.342;2023-03-01T08:37:43;95827.13;;;6.53;nan
6224;BME280;3145;42.726;23.342;2023-03-01T08:40:11;95822.25;;;6.67;nan
6224;BME280;3145;42.726;23.342;2023-03-01T08:42:40;95805.56;;;6.59;nan
6224;BME280;3145;42.726;23.342;2023-03-01T08:45:09;95822.44;;;6.56;nan
6224;BME280;3145;42.726;23.342;2023-03-01T08:47:36;95786.19;;;6.33;nan
6224;BME280;3145;42.726;23.342;2023-03-01T08:50:04;95828.25;;;6.50;nan
6224;BME280;3145;42.726;23.342;2023-03-01T08:52:32;95709.81;;;5.90;nan
6224;BME280;3145;42.726;23.342;2023-03-01T08:54:59;95819.66;;;6.58;nan
6224;BME280;3145;42.726;23.342;2023-03-01T08:57:26;95818.91;;;6.75;nan
6224;BME280;3145;42.726;23.342;2023-03-01T08:59:54;95823.44;;;6.82;nan
6224;BME280;3145;42.726;23.342;2023-03-01T09:02:22;95830.41;;;7.01;nan
6224;BME280;3145;42.726;23.342;2023-03-01T09:04:49;95815.31;;;7.03;nan
6224;BME280;3145;42.726;23.342;2023-03-01T09:07:15;95830.63;;;7.17;nan
6224;BME280;3145;42.726;23.342;2023-03-01T09:09:42;95784.13;;;7.00;nan
6224;BME280;3145;42.726;23.342;2023-03-01T09:12:09;95812.97;;;7.27;nan
6224;BME280;3145;42.726;23.342;2023-03-01T09:14:36;95816.47;;;7.45;nan
6224;BME280;3145;42.726;23.342;2023-03-01T09:17:05;95746.16;;;7.12;nan
6224;BME280;3145;42.726;23.342;2023-03-01T09:19:32;95807.16;;;7.33;nan
6224;BME280;3145;42.726;23.342;2023-03-01T09:21:58;95818.31;;;7.35;nan
6224;BME280;3145;42.726;23.342;2023-03-01T09:24:25;95838.41;;;7.36;nan
6224;BME280;3145;42.726;23.342;2023-03-01T09:26:55;95770.34;;;6.88;nan
6224;BME280;3145;42.726;23.342;2023-03-01T09:29:23;95829.91;;;7.15;nan
6224;BME280;3145;42.726;23.342;2023-03-01T09:31:49;95815.47;;;7.28;nan
6224;BME280;3145;42.726;23.342;2023-03-01T09:34:17;95812.13;;;7.36;nan
6224;BME280;3145;42.726;23.342;2023-03-01T09:36:49;95798.78;;;7.20;nan
6224;BME280;3145;42.726;23.342;2023-03-01T09:39:15;95819.59;;;7.31;nan
6224;BME280;3145;42.726;23.342;2023-03-01T09:41:46;95756.50;;;6.96;nan
6224;BME280;3145;42.726;23.342;2023-03-01T09:44:36;95714.19;;;6.72;nan
6224;BME280;3145;42.726;23.342;2023-03-01T09:47:05;95810.22;;;7.28;nan
6224;BME280;3145;42.726;23.342;2023-03-01T09:49:35;95776.94;;;7.19;nan
6224;BME280;3145;42.726;23.342;2023-03-01T09:52:13;95789.66;;;7.24;nan
6224;BME280;3145;42.726;23.342;2023-03-01T09:54:46;95795.47;;;7.18;nan
6224;BME280;3145;42.726;23.342;2023-03-01T09:57:19;95778.53;;;7.03;nan
6224;BME280;3145;42.726;23.342;2023-03-01T10:00:01;95741.78;;;7.03;nan
6224;BME280;3145;42.726;23.342;2023-03-01T10:02:35;95790.03;;;7.29;nan
6224;BME280;3145;42.726;23.342;2023-03-01T10:05:26;95734.59;;;7.05;nan
6224;BME280;3145;42.726;23.342;2023-03-01T10:08:24;95781.56;;;7.70;nan
6224;BME280;3145;42.726;23.342;2023-03-01T10:10:53;95764.06;;;7.61;nan
6224;BME280;3145;42.726;23.342;2023-03-01T10:13:24;95802.81;;;7.59;nan
6224;BME280;3145;42.726;23.342;2023-03-01T10:15:55;95736.59;;;7.11;nan
6224;BME280;3145;42.726;23.342;2023-03-01T10:18:26;95780.25;;;7.39;nan
6224;BME280;3145;42.726;23.342;2023-03-01T10:20:58;95784.00;;;7.36;nan
6224;BME280;3145;42.726;23.342;2023-03-01T10:23:26;95786.94;;;7.51;nan
6224;BME280;3145;42.726;23.342;2023-03-01T10:26:08;95756.00;;;7.45;nan
6224;BME280;3145;42.726;23.342;2023-03-01T10:28:47;95734.78;;;7.56;nan
6224;BME280;3145;42.726;23.342;2023-03-01T10:31:20;95684.13;;;7.19;nan
6224;BME280;3145;42.726;23.342;2023-03-01T10:33:53;95726.47;;;7.51;nan
6224;BME280;3145;42.726;23.342;2023-03-01T10:36:22;95761.28;;;7.80;nan
6224;BME280;3145;42.726;23.342;2023-03-01T10:38:50;95762.97;;;7.89;nan
6224;BME280;3145;42.726;23.342;2023-03-01T10:41:19;95754.16;;;7.98;nan
6224;BME280;3145;42.726;23.342;2023-03-01T10:43:50;95728.94;;;7.87;nan
6224;BME280;3145;42.726;23.342;2023-03-01T10:46:25;95760.00;;;7.84;nan
6224;BME280;3145;42.726;23.342;2023-03-01T10:49:07;95756.44;;;7.93;nan
6224;BME280;3145;42.726;23.342;2023-03-01T10:51:36;95711.03;;;7.48;nan
6224;BME280;3145;42.726;23.342;2023-03-01T10:54:05;95754.66;;;7.76;nan
6224;BME280;3145;42.726;23.342;2023-03-01T10:56:46;95731.09;;;7.49;nan
6224;BME280;3145;42.726;23.342;2023-03-01T10:59:22;95727.31;;;7.51;nan
6224;BME280;3145;42.726;23.342;2023-03-01T11:02:04;95756.75;;;7.55;nan
6224;BME280;3145;42.726;23.342;2023-03-01T11:04:38;95739.56;;;7.43;nan
6224;BME280;3145;42.726;23.342;2023-03-01T11:07:08;95751.56;;;7.63;nan
6224;BME280;3145;42.726;23.342;2023-03-01T11:09:35;95685.13;;;7.35;nan
6224;BME280;3145;42.726;23.342;2023-03-01T11:12:05;95768.09;;;7.73;nan
6224;BME280;3145;42.726;23.342;2023-03-01T11:14:46;95701.94;;;7.42;nan
6224;BME280;3145;42.726;23.342;2023-03-01T11:17:17;95752.91;;;7.67;nan
6224;BME280;3145;42.726;23.342;2023-03-01T11:19:59;95747.69;;;7.49;nan
6224;BME280;3145;42.726;23.342;2023-03-01T11:22:28;95770.22;;;7.52;nan
6224;BME280;3145;42.726;23.342;2023-03-01T11:24:56;95728.81;;;7.36;nan
6224;BME280;3145;42.726;23.342;2023-03-01T11:27:26;95737.97;;;7.32;nan
6224;BME280;3145;42.726;23.342;2023-03-01T11:29:57;95747.34;;;7.35;nan
6224;BME280;3145;42.726;23.342;2023-03-01T11:32:28;95740.41;;;7.43;nan
6224;BME280;3145;42.726;23.342;2023-03-01T11:35:00;95740.63;;;7.50;nan
6224;BME280;3145;42.726;23.342;2023-03-01T11:37:34;95738.69;;;7.52;nan
6224;BME280;3145;42.726;23.342;2023-03-01T11:40:11;95706.66;;;7.39;nan
6224;BME280;3145;42.726;23.342;2023-03-01T11:42:47;95720.78;;;7.38;nan
6224;BME280;3145;42.726;23.342;2023-03-01T11:45:15;95712.44;;;7.77;nan
6224;BME280;3145;42.726;23.342;2023-03-01T11:47:52;95715.03;;;7.95;nan
6224;BME280;3145;42.726;23.342;2023-03-01T11:50:28;95714.41;;;8.01;nan
6224;BME280;3145;42.726;23.342;2023-03-01T11:53:05;95682.28;;;7.89;nan
6224;BME280;3145;42.726;23.342;2023-03-01T11:55:46;95708.66;;;8.23;nan
6224;BME280;3145;42.726;23.342;2023-03-01T11:58:30;95666.06;;;8.02;nan
6224;BME280;3145;42.726;23.342;2023-03-01T12:01:09;95686.44;;;8.00;nan
6224;BME280;3145;42.726;23.342;2023-03-01T12:03:52;95707.91;;;8.13;nan
6224;BME280;3145;42.726;23.342;2023-03-01T12:06:49;95677.88;;;7.98;nan
6224;BME280;3145;42.726;23.342;2023-03-01T12:09:31;95660.91;;;7.92;nan
6224;BME280;3145;42.726;23.342;2023-03-01T12:12:24;95656.72;;;8.07;nan
6224;BME280;3145;42.726;23.342;2023-03-01T12:15:01;95653.84;;;7.67;nan
6224;BME280;3145;42.726;23.342;2023-03-01T12:17:46;95693.56;;;8.07;nan
6224;BME280;3145;42.726;23.342;2023-03-01T12:20:26;95705.22;;;8.05;nan
6224;BME280;3145;42.726;23.342;2023-03-01T12:23:12;95660.34;;;7.81;nan
6224;BME280;3145;42.726;23.342;2023-03-01T12:25:48;95691.88;;;7.98;nan
6224;BME280;3145;42.726;23.342;2023-03-01T12:31:31;95581.25;;;7.49;nan
6224;BME280;3145;42.726;23.342;2023-03-01T12:34:03;95660.94;;;8.00;nan
6224;BME280;3145;42.726;23.342;2023-03-01T12:36:46;95675.66;;;8.11;nan
6224;BME280;3145;42.726;23.342;2023-03-01T12:39:35;95672.00;;;8.04;nan
6224;BME280;3145;42.726;23.342;2023-03-01T12:42:18;95664.41;;;8.01;nan
6224;BME280;3145;42.726;23.342;2023-03-01T12:45:01;95668.69;;;8.02;nan
6224;BME280;3145;42.726;23.342;2023-03-01T12:47:50;95668.09;;;8.08;nan
6224;BME280;3145;42.726;23.342;2023-03-01T12:50:23;95669.72;;;8.09;nan
6224;BME280;3145;42.726;23.342;2023-03-01T12:52:53;95672.00;;;8.04;nan
6224;BME280;3145;42.726;23.342;2023-03-01T12:55:28;95663.00;;;8.14;nan
6224;BME280;3145;42.726;23.342;2023-03-01T12:58:03;95679.47;;;8.42;nan
6224;BME280;3145;42.726;23.342;2023-03-01T13:00:36;95632.28;;;8.15;nan
6224;BME280;3145;42.726;23.342;2023-03-01T13:03:12;95636.53;;;8.16;nan
6224;BME280;3145;42.726;23.342;2023-03-01T13:06:04;95672.28;;;8.52;nan
6224;BME280;3145;42.726;23.342;2023-03-01T13:08:39;95679.75;;;8.31;nan
6224;BME280;3145;42.726;23.342;2023-03-01T13:11:16;95686.25;;;8.19;nan
6224;BME280;3145;42.726;23.342;2023-03-01T13:13:45;95682.00;;;8.26;nan
6224;BME280;3145;42.726;23.342;2023-03-01T13:16:27;95657.88;;;8.30;nan
6224;BME280;3145;42.726;23.342;2023-03-01T13:19:13;95674.56;;;8.47;nan
6224;BME280;3145;42.726;23.342;2023-03-01T13:21:42;95646.91;;;8.17;nan
6224;BME280;3145;42.726;23.342;2023-03-01T13:24:27;95675.22;;;8.49;nan
6224;BME280;3145;42.726;23.342;2023-03-01T13:27:21;95683.13;;;8.49;nan
6224;BME280;3145;42.726;23.342;2023-03-01T13:29:52;95645.84;;;8.28;nan
6224;BME280;3145;42.726;23.342;2023-03-01T13:32:21;95684.72;;;8.42;nan
6224;BME280;3145;42.726;23.342;2023-03-01T13:34:53;95666.91;;;8.28;nan
6224;BME280;3145;42.726;23.342;2023-03-01T13:37:35;95680.53;;;8.23;nan
6224;BME280;3145;42.726;23.342;2023-03-01T13:43:31;95672.69;;;8.14;nan
6224;BME280;3145;42.726;23.342;2023-03-01T13:46:01;95675.72;;;8.19;nan
6224;BME280;3145;42.726;23.342;2023-03-01T13:48:30;95627.84;;;7.90;nan
6224;BME280;3145;42.726;23.342;2023-03-01T13:50:59;95667.59;;;8.12;nan
6224;BME280;3145;42.726;23.342;2023-03-01T13:53:29;95655.38;;;7.78;nan
6224;BME280;3145;42.726;23.342;2023-03-01T13:56:00;95626.09;;;7.73;nan
6224;BME280;3145;42.726;23.342;2023-03-01T13:58:30;95678.50;;;7.92;nan
6224;BME280;3145;42.726;23.342;2023-03-01T14:01:02;95641.28;;;7.79;nan
6224;BME280;3145;42.726;23.342;2023-03-01T14:03:31;95630.94;;;7.60;nan
6224;BME280;3145;42.726;23.342;2023-03-01T14:06:01;95664.38;;;7.93;nan
6224;BME280;3145;42.726;23.342;2023-03-01T14:08:30;95631.00;;;7.68;nan